createdAt,value
2019-03-31T00:01:53.660Z,9.81
2019-03-31T00:02:11.477Z,9.81
2019-03-31T00:03:53.818Z,9.75
2019-03-31T00:05:53.638Z,9.63
2019-03-31T00:07:53.657Z,9.63
2019-03-31T00:09:53.601Z,9.56
2019-03-31T00:11:53.650Z,9.5
2019-03-31T00:13:53.650Z,9.5
2019-03-31T00:15:53.676Z,9.38
2019-03-31T00:17:10.818Z,9.38
2019-03-31T00:17:54.037Z,9.38
2019-03-31T00:19:53.615Z,9.31
2019-03-31T00:21:53.650Z,9.38
2019-03-31T00:23:53.650Z,9.13
2019-03-31T00:25:53.647Z,9.06
2019-03-31T00:27:53.662Z,9
2019-03-31T00:29:53.636Z,8.94
2019-03-31T00:31:53.643Z,8.94
2019-03-31T00:32:10.643Z,8.94
2019-03-31T00:33:53.596Z,9
2019-03-31T00:35:53.656Z,9
2019-03-31T00:37:53.640Z,9.06
2019-03-31T00:39:53.609Z,9
2019-03-31T00:41:53.723Z,9
2019-03-31T00:43:53.659Z,9
2019-03-31T00:45:53.640Z,9
2019-03-31T00:47:10.644Z,8.94
2019-03-31T00:47:53.662Z,8.94
2019-03-31T00:49:53.650Z,8.94
2019-03-31T00:51:53.658Z,8.94
2019-03-31T00:53:53.750Z,8.88
2019-03-31T00:55:53.641Z,8.81
2019-03-31T00:57:53.696Z,8.81
2019-03-31T00:59:53.659Z,8.75
2019-03-31T01:01:54.644Z,8.75
2019-03-31T01:02:10.679Z,8.75
2019-03-31T01:03:53.659Z,8.75
2019-03-31T01:05:53.675Z,8.69
2019-03-31T01:07:53.679Z,8.69
2019-03-31T01:09:53.683Z,8.75
2019-03-31T01:11:53.660Z,8.63
2019-03-31T01:13:53.661Z,8.63
2019-03-31T01:15:53.551Z,8.56
2019-03-31T01:17:10.732Z,8.63
2019-03-31T01:17:53.605Z,8.63
2019-03-31T01:19:53.631Z,8.63
2019-03-31T01:21:53.650Z,8.56
2019-03-31T01:23:53.693Z,8.5
2019-03-31T01:25:53.587Z,8.5
2019-03-31T01:27:53.604Z,8.5
2019-03-31T01:29:53.641Z,8.44
2019-03-31T01:31:53.666Z,8.44
2019-03-31T01:32:10.671Z,8.5
2019-03-31T01:33:53.629Z,8.44
2019-03-31T01:35:53.677Z,8.5
2019-03-31T01:37:53.627Z,8.5
2019-03-31T01:39:53.686Z,8.5
2019-03-31T01:41:53.656Z,8.5
2019-03-31T01:43:53.767Z,8.5
2019-03-31T01:45:53.667Z,8.56
2019-03-31T01:47:10.641Z,8.5
2019-03-31T01:47:53.746Z,8.63
2019-03-31T01:49:53.654Z,8.75
2019-03-31T01:51:53.767Z,8.75
2019-03-31T01:53:53.665Z,8.69
2019-03-31T01:55:53.603Z,8.69
2019-03-31T01:57:53.630Z,8.63
2019-03-31T01:59:53.608Z,8.63
2019-03-31T02:02:03.844Z,8.69
2019-03-31T02:02:10.649Z,8.75
2019-03-31T02:03:53.676Z,8.81
2019-03-31T02:05:53.726Z,8.81
2019-03-31T02:07:53.664Z,8.75
2019-03-31T02:09:53.633Z,8.69
2019-03-31T02:11:53.662Z,8.56
2019-03-31T02:13:53.648Z,8.5
2019-03-31T02:15:53.598Z,8.44
2019-03-31T02:17:10.693Z,8.38
2019-03-31T02:17:53.571Z,8.38
2019-03-31T02:19:53.637Z,8.25
2019-03-31T02:21:53.677Z,8.19
2019-03-31T02:23:53.636Z,8.25
2019-03-31T02:25:53.595Z,8.25
2019-03-31T02:27:53.655Z,8.31
2019-03-31T02:29:53.653Z,8.31
2019-03-31T02:31:53.667Z,8.25
2019-03-31T02:32:22.993Z,8.25
2019-03-31T02:33:53.728Z,8.19
2019-03-31T02:35:53.642Z,8.19
2019-03-31T02:37:53.660Z,8.25
2019-03-31T02:39:53.774Z,8.19
2019-03-31T02:41:53.682Z,8.19
2019-03-31T02:43:53.779Z,8.25
2019-03-31T02:46:03.814Z,8.38
2019-03-31T02:47:10.769Z,8.38
2019-03-31T02:47:53.727Z,8.38
2019-03-31T02:49:53.648Z,8.31
2019-03-31T02:51:53.705Z,8.38
2019-03-31T02:53:53.633Z,8.31
2019-03-31T02:55:53.658Z,8.31
2019-03-31T02:57:53.635Z,8.31
2019-03-31T03:00:03.584Z,8.31
2019-03-31T03:01:53.668Z,8.31
2019-03-31T03:02:10.654Z,8.31
2019-03-31T03:03:53.687Z,8.25
2019-03-31T03:05:53.851Z,8.25
2019-03-31T03:07:53.759Z,8.25
2019-03-31T03:09:53.657Z,8.25
2019-03-31T03:11:53.677Z,8.19
2019-03-31T03:13:53.605Z,8.19
2019-03-31T03:15:53.606Z,8.06
2019-03-31T03:17:10.646Z,8.06
2019-03-31T03:17:53.638Z,8.06
2019-03-31T03:19:53.734Z,8.06
2019-03-31T03:21:53.697Z,8
2019-03-31T03:23:53.689Z,7.88
2019-03-31T03:25:56.058Z,7.94
2019-03-31T03:27:53.733Z,7.88
2019-03-31T03:29:53.707Z,7.88
2019-03-31T03:31:53.747Z,7.88
2019-03-31T03:32:10.656Z,7.81
2019-03-31T03:33:53.666Z,7.81
2019-03-31T03:35:53.672Z,7.75
2019-03-31T03:37:53.665Z,7.81
2019-03-31T03:39:53.628Z,7.88
2019-03-31T03:41:53.661Z,7.94
2019-03-31T03:43:56.221Z,7.94
2019-03-31T03:45:53.670Z,7.94
2019-03-31T03:47:10.681Z,7.94
2019-03-31T03:47:53.624Z,8
2019-03-31T03:49:53.635Z,8
2019-03-31T03:51:53.666Z,7.94
2019-03-31T03:53:53.588Z,7.94
2019-03-31T03:55:53.663Z,7.94
2019-03-31T03:57:53.754Z,7.94
2019-03-31T03:59:53.671Z,7.94
2019-03-31T04:01:54.549Z,7.94
2019-03-31T04:02:10.532Z,7.88
2019-03-31T04:03:53.676Z,7.88
2019-03-31T04:05:53.772Z,7.81
2019-03-31T04:07:53.733Z,7.88
2019-03-31T04:09:53.651Z,7.81
2019-03-31T04:11:53.537Z,7.81
2019-03-31T04:13:53.699Z,7.81
2019-03-31T04:15:53.637Z,7.75
2019-03-31T04:17:10.651Z,7.81
2019-03-31T04:17:53.708Z,7.75
2019-03-31T04:19:53.626Z,7.69
2019-03-31T04:21:53.604Z,7.75
2019-03-31T04:23:53.657Z,7.75
2019-03-31T04:25:53.634Z,7.69
2019-03-31T04:27:53.695Z,7.69
2019-03-31T04:29:53.686Z,7.63
2019-03-31T04:31:53.678Z,7.63
2019-03-31T04:32:10.600Z,7.63
2019-03-31T04:33:53.717Z,7.63
2019-03-31T04:35:53.666Z,7.56
2019-03-31T04:37:53.656Z,7.56
2019-03-31T04:39:53.654Z,7.56
2019-03-31T04:41:53.649Z,7.5
2019-03-31T04:43:53.655Z,7.5
2019-03-31T04:45:53.808Z,7.5
2019-03-31T04:47:10.724Z,7.5
2019-03-31T04:47:53.769Z,7.5
2019-03-31T04:49:53.650Z,7.5
2019-03-31T04:51:53.658Z,7.5
2019-03-31T04:53:53.575Z,7.5
2019-03-31T04:55:53.767Z,7.56
2019-03-31T04:57:53.677Z,7.5
2019-03-31T04:59:53.602Z,7.5
2019-03-31T05:01:53.636Z,7.5
2019-03-31T05:02:10.633Z,7.5
2019-03-31T05:04:04.242Z,7.5
2019-03-31T05:05:53.663Z,7.56
2019-03-31T05:07:53.729Z,7.5
2019-03-31T05:09:53.666Z,7.56
2019-03-31T05:11:53.811Z,7.5
2019-03-31T05:13:53.705Z,7.5
2019-03-31T05:15:53.651Z,7.56
2019-03-31T05:17:10.948Z,7.56
2019-03-31T05:17:53.647Z,7.56
2019-03-31T05:19:53.570Z,7.5
2019-03-31T05:21:53.647Z,7.5
2019-03-31T05:23:53.651Z,7.5
2019-03-31T05:25:53.596Z,7.5
2019-03-31T05:27:53.653Z,7.44
2019-03-31T05:29:53.669Z,7.38
2019-03-31T05:31:53.696Z,7.38
2019-03-31T05:32:10.605Z,7.38
2019-03-31T05:33:54.600Z,7.31
2019-03-31T05:35:53.666Z,7.31
2019-03-31T05:37:53.691Z,7.31
2019-03-31T05:39:53.740Z,7.25
2019-03-31T05:41:53.767Z,7.31
2019-03-31T05:44:05.045Z,7.31
2019-03-31T05:45:53.755Z,7.31
2019-03-31T05:47:10.555Z,7.31
2019-03-31T05:47:53.663Z,7.31
2019-03-31T05:49:53.681Z,7.31
2019-03-31T05:51:53.650Z,7.31
2019-03-31T05:53:53.751Z,7.38
2019-03-31T05:55:53.668Z,7.38
2019-03-31T05:57:53.766Z,7.31
2019-03-31T05:59:54.527Z,7.31
2019-03-31T06:01:53.631Z,7.31
2019-03-31T06:02:10.673Z,7.31
2019-03-31T06:03:54.543Z,7.31
2019-03-31T06:05:53.623Z,7.38
2019-03-31T06:07:53.655Z,7.38
2019-03-31T06:09:53.653Z,7.44
2019-03-31T06:11:53.790Z,7.44
2019-03-31T06:13:53.646Z,7.44
2019-03-31T06:15:53.654Z,7.5
2019-03-31T06:17:10.625Z,7.5
2019-03-31T06:17:53.668Z,7.5
2019-03-31T06:19:53.667Z,7.56
2019-03-31T06:21:54.446Z,7.56
2019-03-31T06:23:53.675Z,7.56
2019-03-31T06:25:53.651Z,7.56
2019-03-31T06:27:53.721Z,7.56
2019-03-31T06:29:53.639Z,7.56
2019-03-31T06:31:53.621Z,7.56
2019-03-31T06:32:10.727Z,7.56
2019-03-31T06:33:53.636Z,7.56
2019-03-31T06:35:54.544Z,7.63
2019-03-31T06:37:53.561Z,7.56
2019-03-31T06:39:53.634Z,7.56
2019-03-31T06:41:53.649Z,7.63
2019-03-31T06:43:53.782Z,7.63
2019-03-31T06:45:53.632Z,7.69
2019-03-31T06:47:10.696Z,7.63
2019-03-31T06:47:53.730Z,7.69
2019-03-31T06:49:53.593Z,7.69
2019-03-31T06:51:53.758Z,7.75
2019-03-31T06:53:53.723Z,7.81
2019-03-31T06:55:53.665Z,7.88
2019-03-31T06:57:53.643Z,7.94
2019-03-31T06:59:53.681Z,8
2019-03-31T07:01:53.668Z,8.06
2019-03-31T07:02:10.573Z,8.06
2019-03-31T07:03:53.643Z,8.06
2019-03-31T07:05:53.699Z,8.06
2019-03-31T07:07:53.649Z,8
2019-03-31T07:09:54.529Z,8.06
2019-03-31T07:11:53.658Z,8.06
2019-03-31T07:13:53.648Z,8.06
2019-03-31T07:15:53.634Z,8.13
2019-03-31T07:17:10.578Z,8.06
2019-03-31T07:17:53.652Z,8.06
2019-03-31T07:19:53.556Z,8.13
2019-03-31T07:21:53.663Z,8.19
2019-03-31T07:23:53.666Z,8.19
2019-03-31T07:25:53.640Z,8.31
2019-03-31T07:27:53.601Z,8.25
2019-03-31T07:29:53.636Z,8.31
2019-03-31T07:31:53.659Z,8.31
2019-03-31T07:32:10.564Z,8.31
2019-03-31T07:34:03.653Z,8.44
2019-03-31T07:35:53.595Z,8.44
2019-03-31T07:38:03.610Z,8.44
2019-03-31T07:39:53.683Z,8.5
2019-03-31T07:41:54.005Z,8.56
2019-03-31T07:43:53.661Z,8.69
2019-03-31T07:45:55.776Z,8.88
2019-03-31T07:47:10.720Z,8.88
2019-03-31T07:47:53.652Z,8.94
2019-03-31T07:49:53.657Z,9
2019-03-31T07:51:53.660Z,9.13
2019-03-31T07:53:53.714Z,9.19
2019-03-31T07:55:53.776Z,9.19
2019-03-31T07:57:54.635Z,9.31
2019-03-31T07:59:56.539Z,9.31
2019-03-31T08:01:53.700Z,9.25
2019-03-31T08:02:10.651Z,9.25
2019-03-31T08:03:53.666Z,9.25
2019-03-31T08:05:53.653Z,9.31
2019-03-31T08:07:53.637Z,9.38
2019-03-31T08:09:53.655Z,9.44
2019-03-31T08:11:53.701Z,9.56
2019-03-31T08:13:55.312Z,9.63
2019-03-31T08:15:53.896Z,9.5
2019-03-31T08:17:10.684Z,9.5
2019-03-31T08:17:53.649Z,9.56
2019-03-31T08:19:53.760Z,9.5
2019-03-31T08:21:54.529Z,9.5
2019-03-31T08:23:53.600Z,9.56
2019-03-31T08:25:53.651Z,9.63
2019-03-31T08:27:53.661Z,9.75
2019-03-31T08:30:00.301Z,9.88
2019-03-31T08:31:53.807Z,9.94
2019-03-31T08:32:10.633Z,9.94
2019-03-31T08:33:53.623Z,9.94
2019-03-31T08:35:53.669Z,10
2019-03-31T08:37:53.676Z,9.94
2019-03-31T08:39:53.653Z,9.94
2019-03-31T08:41:53.790Z,10
2019-03-31T08:43:53.991Z,10.13
2019-03-31T08:45:53.603Z,10.19
2019-03-31T08:47:10.668Z,10.06
2019-03-31T08:47:53.884Z,10.13
2019-03-31T08:49:53.639Z,10.13
2019-03-31T08:51:53.662Z,10.13
2019-03-31T08:53:53.755Z,10.06
2019-03-31T08:55:53.647Z,9.88
2019-03-31T08:57:53.739Z,10.06
2019-03-31T08:59:53.633Z,10
2019-03-31T09:01:53.647Z,10.06
2019-03-31T09:02:11.497Z,10.06
2019-03-31T09:03:53.655Z,10.13
2019-03-31T09:06:01.358Z,10.19
2019-03-31T09:07:53.635Z,10.25
2019-03-31T09:09:53.706Z,10.31
2019-03-31T09:11:53.646Z,10.44
2019-03-31T09:13:53.650Z,10.5
2019-03-31T09:15:53.698Z,10.56
2019-03-31T09:17:10.621Z,10.56
2019-03-31T09:17:54.294Z,10.63
2019-03-31T09:19:53.625Z,10.38
2019-03-31T09:21:53.584Z,10.38
2019-03-31T09:23:54.649Z,10.38
2019-03-31T09:25:53.805Z,10.25
2019-03-31T09:27:53.654Z,10.13
2019-03-31T09:29:53.766Z,10
2019-03-31T09:31:53.689Z,9.88
2019-03-31T09:32:10.574Z,9.94
2019-03-31T09:33:53.607Z,10.06
2019-03-31T09:35:53.662Z,9.94
2019-03-31T09:37:53.654Z,10
2019-03-31T09:39:53.770Z,9.88
2019-03-31T09:41:53.659Z,10
2019-03-31T09:43:53.656Z,10.06
2019-03-31T09:45:53.666Z,9.94
2019-03-31T09:47:10.735Z,10
2019-03-31T09:47:53.612Z,10
2019-03-31T09:49:53.639Z,10
2019-03-31T09:51:53.654Z,10.13
2019-03-31T09:53:53.674Z,10.19
2019-03-31T09:55:53.602Z,10.13
2019-03-31T09:57:53.942Z,10.25
2019-03-31T09:59:53.704Z,10.56
2019-03-31T10:01:53.666Z,10.75
2019-03-31T10:02:11.517Z,10.75
2019-03-31T10:03:53.734Z,10.81
2019-03-31T10:05:53.644Z,10.44
2019-03-31T10:07:53.632Z,10.56
2019-03-31T10:09:53.671Z,10.75
2019-03-31T10:11:55.406Z,10.75
2019-03-31T10:13:54.629Z,10.88
2019-03-31T10:15:53.655Z,10.94
2019-03-31T10:17:10.762Z,11
2019-03-31T10:17:53.658Z,10.94
2019-03-31T10:19:53.739Z,10.88
2019-03-31T10:21:53.888Z,10.75
2019-03-31T10:23:54.539Z,10.75
2019-03-31T10:25:53.615Z,11.19
2019-03-31T10:27:53.646Z,11.5
2019-03-31T10:29:53.626Z,11.56
2019-03-31T10:31:53.657Z,11.63
2019-03-31T10:32:10.662Z,11.63
2019-03-31T10:33:53.694Z,11.44
2019-03-31T10:35:53.642Z,11.38
2019-03-31T10:37:53.642Z,11.25
2019-03-31T10:39:53.693Z,11.5
2019-03-31T10:41:54.526Z,11.69
2019-03-31T10:43:53.693Z,11.44
2019-03-31T10:45:53.682Z,11.56
2019-03-31T10:47:10.562Z,11.69
2019-03-31T10:47:53.657Z,11.81
2019-03-31T10:49:58.872Z,11.75
2019-03-31T10:51:53.654Z,11.88
2019-03-31T10:53:53.624Z,11.88
2019-03-31T10:55:53.643Z,12.44
2019-03-31T10:57:53.762Z,12.5
2019-03-31T10:59:53.666Z,12.25
2019-03-31T11:01:53.656Z,12.25
2019-03-31T11:02:10.666Z,12.31
2019-03-31T11:03:53.671Z,12.56
2019-03-31T11:05:53.656Z,12.44
2019-03-31T11:07:53.690Z,12.25
2019-03-31T11:09:53.614Z,12.44
2019-03-31T11:11:53.681Z,12.38
2019-03-31T11:13:54.438Z,12.75
2019-03-31T11:15:53.633Z,12.81
2019-03-31T11:17:10.743Z,12.81
2019-03-31T11:17:53.673Z,12.69
2019-03-31T11:19:53.740Z,12.75
2019-03-31T11:21:53.646Z,12.31
2019-03-31T11:23:53.710Z,12.13
2019-03-31T11:25:53.660Z,12.31
2019-03-31T11:27:53.687Z,11.81
2019-03-31T11:29:53.653Z,11.69
2019-03-31T11:31:53.680Z,11.75
2019-03-31T11:32:11.563Z,11.81
2019-03-31T11:33:53.741Z,12.19
2019-03-31T11:35:53.682Z,12.31
2019-03-31T11:37:53.668Z,12.13
2019-03-31T11:39:53.589Z,12.38
2019-03-31T11:41:53.647Z,12.25
2019-03-31T11:43:53.681Z,12.13
2019-03-31T11:45:53.677Z,11.69
2019-03-31T11:47:10.603Z,11.56
2019-03-31T11:47:53.725Z,11.5
2019-03-31T11:49:53.681Z,11.5
2019-03-31T11:51:53.670Z,11.56
2019-03-31T11:53:53.652Z,11.75
2019-03-31T11:55:53.674Z,11.75
2019-03-31T11:57:53.680Z,11.88
2019-03-31T11:59:54.573Z,11.81
2019-03-31T12:01:53.679Z,11.81
2019-03-31T12:02:10.606Z,11.81
2019-03-31T12:03:53.655Z,11.75
2019-03-31T12:05:54.529Z,11.63
2019-03-31T12:07:53.615Z,11.88
2019-03-31T12:09:53.596Z,11.94
2019-03-31T12:11:53.610Z,12.06
2019-03-31T12:13:53.692Z,12.13
2019-03-31T12:15:53.650Z,12.13
2019-03-31T12:17:10.627Z,12.13
2019-03-31T12:17:53.859Z,12.06
2019-03-31T12:19:53.649Z,12
2019-03-31T12:21:54.548Z,12
2019-03-31T12:23:53.643Z,12
2019-03-31T12:25:56.787Z,12.13
2019-03-31T12:27:53.680Z,12.06
2019-03-31T12:30:03.707Z,12.13
2019-03-31T12:31:53.672Z,12.19
2019-03-31T12:32:10.643Z,12.25
2019-03-31T12:33:53.923Z,12.31
2019-03-31T12:35:53.663Z,12.5
2019-03-31T12:37:53.655Z,12.31
2019-03-31T12:39:53.672Z,12.5
2019-03-31T12:41:53.653Z,12.38
2019-03-31T12:43:53.676Z,12.19
2019-03-31T12:45:53.666Z,12.38
2019-03-31T12:47:10.675Z,12.44
2019-03-31T12:47:53.791Z,12.31
2019-03-31T12:49:53.762Z,12.56
2019-03-31T12:51:55.169Z,12.69
2019-03-31T12:53:53.684Z,12.5
2019-03-31T12:55:59.705Z,12.56
2019-03-31T12:58:03.633Z,12.56
2019-03-31T12:59:53.759Z,12.44
2019-03-31T13:01:53.680Z,12.56
2019-03-31T13:02:10.603Z,12.63
2019-03-31T13:03:53.571Z,12.81
2019-03-31T13:05:53.656Z,12.69
2019-03-31T13:07:56.406Z,12.5
2019-03-31T13:09:54.540Z,12.44
2019-03-31T13:11:53.645Z,12.31
2019-03-31T13:13:53.682Z,12.31
2019-03-31T13:15:54.688Z,12.31
2019-03-31T13:17:10.692Z,12.5
2019-03-31T13:17:53.669Z,12.44
2019-03-31T13:19:54.538Z,12.63
2019-03-31T13:21:53.664Z,12.63
2019-03-31T13:25:53.661Z,12.69
2019-03-31T13:27:53.661Z,12.56
2019-03-31T13:29:53.643Z,12.63
2019-03-31T13:31:53.653Z,12.56
2019-03-31T13:32:10.566Z,12.63
2019-03-31T13:33:53.660Z,12.69
2019-03-31T13:35:53.735Z,12.56
2019-03-31T13:37:53.671Z,12.75
2019-03-31T13:39:53.654Z,13
2019-03-31T13:41:53.666Z,12.94
2019-03-31T13:43:53.676Z,12.94
2019-03-31T13:45:53.678Z,12.75
2019-03-31T13:47:10.629Z,12.88
2019-03-31T13:47:53.689Z,12.81
2019-03-31T13:49:53.602Z,12.88
2019-03-31T13:51:53.662Z,13
2019-03-31T13:53:53.611Z,13
2019-03-31T13:55:53.674Z,13.06
2019-03-31T13:57:54.615Z,13.31
2019-03-31T13:59:53.687Z,13.44
2019-03-31T14:01:53.655Z,13.38
2019-03-31T14:02:10.740Z,13.38
2019-03-31T14:03:53.654Z,13.25
2019-03-31T14:05:53.636Z,13.06
2019-03-31T14:07:53.661Z,13.19
2019-03-31T14:10:03.609Z,13.13
2019-03-31T14:11:53.643Z,13.13
2019-03-31T14:13:55.940Z,13.13
2019-03-31T14:15:53.610Z,13.44
2019-03-31T14:17:10.651Z,13.38
2019-03-31T14:17:53.661Z,13.38
2019-03-31T14:19:53.977Z,13.38
2019-03-31T14:21:53.618Z,13.81
2019-03-31T14:23:53.655Z,13.88
2019-03-31T14:25:53.665Z,13.94
2019-03-31T14:27:53.695Z,14.38
2019-03-31T14:29:53.719Z,14
2019-03-31T14:31:53.646Z,13.94
2019-03-31T14:32:10.685Z,13.94
2019-03-31T14:33:53.664Z,14.06
2019-03-31T14:35:53.663Z,14.13
2019-03-31T14:37:53.672Z,14.13
2019-03-31T14:39:53.666Z,13.94
2019-03-31T14:41:53.670Z,14.13
2019-03-31T14:43:53.666Z,14.06
2019-03-31T14:45:54.456Z,14.56
2019-03-31T14:47:11.604Z,14.31
2019-03-31T14:47:53.707Z,14.25
2019-03-31T14:49:53.660Z,14.19
2019-03-31T14:51:53.614Z,14.25
2019-03-31T14:53:53.645Z,14.31
2019-03-31T14:55:53.668Z,14.19
2019-03-31T14:57:53.646Z,14.5
2019-03-31T14:59:53.648Z,14.5
2019-03-31T15:01:53.663Z,14.25
2019-03-31T15:02:11.490Z,14.31
2019-03-31T15:03:58.593Z,13.88
2019-03-31T15:05:53.672Z,14.19
2019-03-31T15:07:53.613Z,14.13
2019-03-31T15:09:53.678Z,14.13
2019-03-31T15:11:53.664Z,14.56
2019-03-31T15:13:53.649Z,14.13
2019-03-31T15:15:53.653Z,14.44
2019-03-31T15:17:10.710Z,14.44
2019-03-31T15:17:53.634Z,14.5
2019-03-31T15:19:53.657Z,14.75
2019-03-31T15:21:53.877Z,14.69
2019-03-31T15:23:53.626Z,15.06
2019-03-31T15:25:53.879Z,15.06
2019-03-31T15:27:53.642Z,15.25
2019-03-31T15:29:53.648Z,14.88
2019-03-31T15:31:53.642Z,15.06
2019-03-31T15:32:10.666Z,15.13
2019-03-31T15:33:53.738Z,14.94
2019-03-31T15:35:53.669Z,15.5
2019-03-31T15:37:53.676Z,15.81
2019-03-31T15:39:53.621Z,15.5
2019-03-31T15:41:53.643Z,15.19
2019-03-31T15:43:53.656Z,15.44
2019-03-31T15:45:53.601Z,15.44
2019-03-31T15:47:10.784Z,15
2019-03-31T15:47:53.645Z,14.94
2019-03-31T15:49:53.678Z,14.75
2019-03-31T15:51:53.651Z,15
2019-03-31T15:53:53.611Z,15
2019-03-31T15:55:53.662Z,15.06
2019-03-31T15:57:54.502Z,14.81
2019-03-31T15:59:53.617Z,15.13
2019-03-31T16:01:53.654Z,15.44
2019-03-31T16:02:12.604Z,15.5
2019-03-31T16:03:53.690Z,15.5
2019-03-31T16:05:53.731Z,15.25
2019-03-31T16:07:54.537Z,15.06
2019-03-31T16:09:53.656Z,15.25
2019-03-31T16:11:54.192Z,15.5
2019-03-31T16:13:53.661Z,15.19
2019-03-31T16:15:54.514Z,15.19
2019-03-31T16:17:10.852Z,15.13
2019-03-31T16:17:53.660Z,14.94
2019-03-31T16:19:53.651Z,15
2019-03-31T16:21:53.654Z,14.88
2019-03-31T16:23:53.653Z,14.56
2019-03-31T16:25:53.630Z,14.56
2019-03-31T16:27:53.651Z,14.63
2019-03-31T16:29:53.658Z,14.13
2019-03-31T16:31:53.760Z,14.19
2019-03-31T16:32:10.710Z,14.25
2019-03-31T16:33:54.506Z,14.56
2019-03-31T16:35:53.721Z,14.44
2019-03-31T16:37:53.648Z,14.19
2019-03-31T16:40:08.693Z,14.31
2019-03-31T16:41:53.635Z,14.25
2019-03-31T16:43:53.613Z,14.13
2019-03-31T16:45:53.667Z,13.88
2019-03-31T16:47:10.765Z,13.81
2019-03-31T16:47:53.655Z,13.81
2019-03-31T16:49:53.559Z,13.56
2019-03-31T16:51:53.657Z,13.63
2019-03-31T16:53:53.653Z,13.44
2019-03-31T16:55:53.639Z,12.88
2019-03-31T16:57:53.679Z,12.81
2019-03-31T16:59:53.648Z,13
2019-03-31T17:01:53.609Z,12.81
2019-03-31T17:02:10.647Z,12.75
2019-03-31T17:03:53.763Z,12.88
2019-03-31T17:05:53.594Z,12.75
2019-03-31T17:07:53.640Z,12.81
2019-03-31T17:09:53.609Z,12.81
2019-03-31T17:11:53.590Z,12.94
2019-03-31T17:13:54.568Z,12.75
2019-03-31T17:15:53.736Z,12.56
2019-03-31T17:17:10.652Z,12.56
2019-03-31T17:17:53.675Z,12.31
2019-03-31T17:19:53.692Z,12
2019-03-31T17:21:53.683Z,12
2019-03-31T17:23:53.646Z,11.81
2019-03-31T17:25:53.687Z,11.94
2019-03-31T17:27:53.763Z,11.81
2019-03-31T17:29:54.579Z,11.69
2019-03-31T17:31:53.613Z,11.56
2019-03-31T17:32:11.558Z,11.63
2019-03-31T17:33:53.735Z,11.5
2019-03-31T17:35:53.633Z,11.19
2019-03-31T17:37:53.673Z,11.13
2019-03-31T17:40:05.288Z,11.06
2019-03-31T17:41:53.769Z,11
2019-03-31T17:43:53.717Z,11
2019-03-31T17:45:53.645Z,10.94
2019-03-31T17:47:10.701Z,10.81
2019-03-31T17:47:53.656Z,10.69
2019-03-31T17:49:53.668Z,10.75
2019-03-31T17:51:53.659Z,10.69
2019-03-31T17:53:53.754Z,10.56
2019-03-31T17:55:53.696Z,10.44
2019-03-31T17:57:53.646Z,10.44
2019-03-31T17:59:54.542Z,10.44
2019-03-31T18:01:53.662Z,10.31
2019-03-31T18:02:12.422Z,10.31
2019-03-31T18:03:53.678Z,10.31
2019-03-31T18:05:53.661Z,10.31
2019-03-31T18:07:53.642Z,10.25
2019-03-31T18:09:53.788Z,10.25
2019-03-31T18:11:53.872Z,10.06
2019-03-31T18:13:53.842Z,10.06
2019-03-31T18:15:53.740Z,10
2019-03-31T18:17:11.512Z,10
2019-03-31T18:17:53.853Z,9.94
2019-03-31T18:19:54.769Z,9.88
2019-03-31T18:21:53.652Z,9.81
2019-03-31T18:23:53.672Z,9.81
2019-03-31T18:25:53.669Z,9.81
2019-03-31T18:27:53.662Z,9.69
2019-03-31T18:29:53.671Z,9.63
2019-03-31T18:31:53.705Z,9.63
2019-03-31T18:32:11.532Z,9.63
2019-03-31T18:33:53.669Z,9.63
2019-03-31T18:35:53.634Z,9.56
2019-03-31T18:37:53.649Z,9.44
2019-03-31T18:39:54.670Z,9.44
2019-03-31T18:41:53.651Z,9.44
2019-03-31T18:43:53.664Z,9.38
2019-03-31T18:45:53.808Z,9.31
2019-03-31T18:47:10.691Z,9.25
2019-03-31T18:47:53.666Z,9.25
2019-03-31T18:49:53.648Z,9.19
2019-03-31T18:51:53.661Z,9.25
2019-03-31T18:53:53.677Z,9.13
2019-03-31T18:55:53.651Z,9.13
2019-03-31T18:57:54.819Z,9.13
2019-03-31T18:59:53.633Z,9.06
2019-03-31T19:01:53.642Z,9.06
2019-03-31T19:02:11.686Z,9.06
2019-03-31T19:03:53.667Z,9
2019-03-31T19:05:53.594Z,9
2019-03-31T19:07:53.659Z,9
2019-03-31T19:09:53.621Z,9
2019-03-31T19:11:53.670Z,8.94
2019-03-31T19:13:55.421Z,8.94
2019-03-31T19:15:53.760Z,8.88
2019-03-31T19:17:10.694Z,8.88
2019-03-31T19:17:59.595Z,8.88
2019-03-31T19:19:53.650Z,8.88
2019-03-31T19:21:53.666Z,8.88
2019-03-31T19:23:53.662Z,8.75
2019-03-31T19:25:53.630Z,8.75
2019-03-31T19:27:53.607Z,8.75
2019-03-31T19:29:53.704Z,8.75
2019-03-31T19:31:53.670Z,8.69
2019-03-31T19:32:10.653Z,8.69
2019-03-31T19:33:53.655Z,8.69
2019-03-31T19:35:53.913Z,8.63
2019-03-31T19:37:54.553Z,8.69
2019-03-31T19:39:53.674Z,8.69
2019-03-31T19:41:53.653Z,8.63
2019-03-31T19:43:54.521Z,8.63
2019-03-31T19:45:54.532Z,8.56
2019-03-31T19:47:10.710Z,8.5
2019-03-31T19:47:53.890Z,8.56
2019-03-31T19:49:53.656Z,8.5
2019-03-31T19:51:58.668Z,8.5
2019-03-31T19:53:53.664Z,8.5
2019-03-31T19:56:07.633Z,8.44
2019-03-31T19:57:53.590Z,8.44
2019-03-31T19:59:54.511Z,8.38
2019-03-31T20:01:54.671Z,8.38
2019-03-31T20:02:10.640Z,8.38
2019-03-31T20:03:59.480Z,8.31
2019-03-31T20:05:54.526Z,8.31
2019-03-31T20:07:54.817Z,8.25
2019-03-31T20:09:53.658Z,8.25
2019-03-31T20:11:54.555Z,8.19
2019-03-31T20:13:54.569Z,8.19
2019-03-31T20:15:54.572Z,8.19
2019-03-31T20:17:10.721Z,8.19
2019-03-31T20:17:54.528Z,8.13
2019-03-31T20:19:54.618Z,8.19
2019-03-31T20:21:54.550Z,8.13
2019-03-31T20:23:53.686Z,8.13
2019-03-31T20:25:53.663Z,8.13
2019-03-31T20:27:53.660Z,8.19
2019-03-31T20:29:53.737Z,8.13
2019-03-31T20:31:54.200Z,8.06
2019-03-31T20:32:10.692Z,8.06
2019-03-31T20:33:53.645Z,8.06
2019-03-31T20:35:53.589Z,8
2019-03-31T20:37:53.779Z,8
2019-03-31T20:39:56.746Z,7.94
2019-03-31T20:41:53.677Z,7.94
2019-03-31T20:43:53.599Z,7.94
2019-03-31T20:45:53.678Z,7.94
2019-03-31T20:47:10.692Z,7.94
2019-03-31T20:47:53.659Z,7.94
2019-03-31T20:49:53.611Z,7.88
2019-03-31T20:51:53.666Z,7.81
2019-03-31T20:53:53.649Z,7.81
2019-03-31T20:55:53.653Z,7.75
2019-03-31T20:57:53.653Z,7.69
2019-03-31T20:59:53.744Z,7.69
2019-03-31T21:01:53.642Z,7.69
2019-03-31T21:02:10.631Z,7.63
2019-03-31T21:03:53.686Z,7.56
2019-03-31T21:05:53.658Z,7.56
2019-03-31T21:07:53.684Z,7.5
2019-03-31T21:09:53.648Z,7.5
2019-03-31T21:11:53.657Z,7.5
2019-03-31T21:13:56.743Z,7.44
2019-03-31T21:15:53.644Z,7.44
2019-03-31T21:17:10.714Z,7.44
2019-03-31T21:17:53.648Z,7.38
2019-03-31T21:19:53.762Z,7.38
2019-03-31T21:21:53.673Z,7.31
2019-03-31T21:23:53.667Z,7.31
2019-03-31T21:25:53.687Z,7.31
2019-03-31T21:27:53.740Z,7.31
2019-03-31T21:29:53.668Z,7.31
2019-03-31T21:31:53.674Z,7.25
2019-03-31T21:32:10.632Z,7.25
2019-03-31T21:33:53.666Z,7.25
2019-03-31T21:37:54.491Z,7.19
2019-03-31T21:39:54.700Z,7.19
2019-03-31T21:41:53.664Z,7.19
2019-03-31T21:43:53.663Z,7.13
2019-03-31T21:45:53.729Z,7.13
2019-03-31T21:47:10.662Z,7.06
2019-03-31T21:47:53.646Z,7.06
2019-03-31T21:49:53.685Z,7
2019-03-31T21:51:53.602Z,6.94
2019-03-31T21:53:53.652Z,7
2019-03-31T21:55:53.657Z,6.94
2019-03-31T21:57:53.663Z,6.94
2019-03-31T21:59:53.648Z,6.88
2019-03-31T22:01:53.595Z,6.88
2019-03-31T22:02:10.651Z,6.88
2019-03-31T22:03:53.645Z,6.88
2019-03-31T22:05:53.630Z,6.81
2019-03-31T22:07:53.611Z,6.81
2019-03-31T22:09:53.657Z,6.81
2019-03-31T22:11:53.659Z,6.75
2019-03-31T22:13:58.868Z,6.75
2019-03-31T22:15:53.663Z,6.69
2019-03-31T22:17:10.688Z,6.69
2019-03-31T22:17:53.673Z,6.69
2019-03-31T22:19:54.510Z,6.63
2019-03-31T22:21:53.656Z,6.56
2019-03-31T22:23:57.983Z,6.5
2019-03-31T22:25:53.626Z,6.5
2019-03-31T22:27:53.657Z,6.5
2019-03-31T22:29:53.669Z,6.44
2019-03-31T22:31:53.749Z,6.44
2019-03-31T22:32:10.639Z,6.44
2019-03-31T22:33:53.658Z,6.44
2019-03-31T22:35:53.653Z,6.44
2019-03-31T22:37:53.675Z,6.38
2019-03-31T22:39:53.596Z,6.38
2019-03-31T22:41:53.680Z,6.38
2019-03-31T22:43:53.651Z,6.31
2019-03-31T22:45:53.666Z,6.31
2019-03-31T22:47:13.810Z,6.31
2019-03-31T22:47:53.653Z,6.31
2019-03-31T22:49:53.657Z,6.25
2019-03-31T22:51:56.392Z,6.25
2019-03-31T22:53:53.654Z,6.19
2019-03-31T22:55:53.780Z,6.19
2019-03-31T22:57:53.662Z,6.13
2019-03-31T22:59:53.692Z,6.06
2019-03-31T23:01:53.633Z,6.06
2019-03-31T23:02:11.530Z,6.06
2019-03-31T23:03:53.880Z,6.13
2019-03-31T23:05:53.674Z,6
2019-03-31T23:07:53.665Z,5.94
2019-03-31T23:09:53.607Z,5.94
2019-03-31T23:11:53.670Z,5.94
2019-03-31T23:13:53.626Z,5.94
2019-03-31T23:15:53.643Z,5.94
2019-03-31T23:17:10.721Z,5.88
2019-03-31T23:17:53.667Z,5.94
2019-03-31T23:19:53.644Z,5.94
2019-03-31T23:21:53.665Z,5.88
2019-03-31T23:23:53.710Z,5.88
2019-03-31T23:25:53.619Z,5.81
2019-03-31T23:27:53.660Z,5.88